sensor_id;sensor_type;location;lat;lon;timestamp;P1;durP1;ratioP1;P2;durP2;ratioP2
5898;SDS011;2975;50.956;6.962;2022-11-12T00:01:16;8.13;;;4.27;;
5898;SDS011;2975;50.956;6.962;2022-11-12T00:03:42;7.63;;;4.37;;
5898;SDS011;2975;50.956;6.962;2022-11-12T00:06:08;9.83;;;4.33;;
5898;SDS011;2975;50.956;6.962;2022-11-12T00:08:34;8.10;;;4.33;;
5898;SDS011;2975;50.956;6.962;2022-11-12T00:11:00;5.67;;;4.03;;
5898;SDS011;2975;50.956;6.962;2022-11-12T00:13:26;8.20;;;4.03;;
5898;SDS011;2975;50.956;6.962;2022-11-12T00:15:51;10.70;;;4.70;;
5898;SDS011;2975;50.956;6.962;2022-11-12T00:18:17;5.43;;;4.27;;
5898;SDS011;2975;50.956;6.962;2022-11-12T00:20:43;7.13;;;4.30;;
5898;SDS011;2975;50.956;6.962;2022-11-12T00:23:08;8.03;;;4.10;;
5898;SDS011;2975;50.956;6.962;2022-11-12T00:25:34;11.73;;;4.80;;
5898;SDS011;2975;50.956;6.962;2022-11-12T00:28:01;8.87;;;4.80;;
5898;SDS011;2975;50.956;6.962;2022-11-12T00:30:28;9.85;;;5.50;;
5898;SDS011;2975;50.956;6.962;2022-11-12T00:32:54;6.87;;;4.73;;
5898;SDS011;2975;50.956;6.962;2022-11-12T00:35:19;6.43;;;4.73;;
5898;SDS011;2975;50.956;6.962;2022-11-12T00:37:45;10.33;;;3.97;;
5898;SDS011;2975;50.956;6.962;2022-11-12T00:40:10;9.40;;;4.57;;
5898;SDS011;2975;50.956;6.962;2022-11-12T00:42:36;6.53;;;4.53;;
5898;SDS011;2975;50.956;6.962;2022-11-12T00:45:01;7.63;;;4.07;;
5898;SDS011;2975;50.956;6.962;2022-11-12T00:47:27;6.40;;;4.40;;
5898;SDS011;2975;50.956;6.962;2022-11-12T00:49:53;6.80;;;4.60;;
5898;SDS011;2975;50.956;6.962;2022-11-12T00:52:18;9.20;;;4.57;;
5898;SDS011;2975;50.956;6.962;2022-11-12T00:54:44;6.67;;;4.87;;
5898;SDS011;2975;50.956;6.962;2022-11-12T00:57:10;5.93;;;4.73;;
5898;SDS011;2975;50.956;6.962;2022-11-12T00:59:35;8.00;;;4.50;;
5898;SDS011;2975;50.956;6.962;2022-11-12T01:02:01;8.48;;;5.13;;
5898;SDS011;2975;50.956;6.962;2022-11-12T01:04:26;5.90;;;4.40;;
5898;SDS011;2975;50.956;6.962;2022-11-12T01:06:52;7.70;;;4.37;;
5898;SDS011;2975;50.956;6.962;2022-11-12T01:09:17;7.60;;;4.73;;
5898;SDS011;2975;50.956;6.962;2022-11-12T01:11:43;6.20;;;4.00;;
5898;SDS011;2975;50.956;6.962;2022-11-12T01:14:09;8.90;;;3.93;;
5898;SDS011;2975;50.956;6.962;2022-11-12T01:16:38;10.97;;;4.73;;
5898;SDS011;2975;50.956;6.962;2022-11-12T01:19:05;6.10;;;3.83;;
5898;SDS011;2975;50.956;6.962;2022-11-12T01:21:35;8.20;;;4.37;;
5898;SDS011;2975;50.956;6.962;2022-11-12T01:24:03;11.80;;;4.43;;
5898;SDS011;2975;50.956;6.962;2022-11-12T01:26:29;7.23;;;4.50;;
5898;SDS011;2975;50.956;6.962;2022-11-12T01:28:54;7.37;;;4.23;;
5898;SDS011;2975;50.956;6.962;2022-11-12T01:31:23;5.87;;;4.37;;
5898;SDS011;2975;50.956;6.962;2022-11-12T01:33:57;10.17;;;4.70;;
5898;SDS011;2975;50.956;6.962;2022-11-12T01:36:25;5.47;;;4.27;;
5898;SDS011;2975;50.956;6.962;2022-11-12T01:38:51;6.13;;;4.30;;
5898;SDS011;2975;50.956;6.962;2022-11-12T01:41:22;6.87;;;4.03;;
5898;SDS011;2975;50.956;6.962;2022-11-12T01:46:36;6.70;;;4.33;;
5898;SDS011;2975;50.956;6.962;2022-11-12T01:49:23;10.27;;;4.80;;
5898;SDS011;2975;50.956;6.962;2022-11-12T01:51:57;8.63;;;4.47;;
5898;SDS011;2975;50.956;6.962;2022-11-12T01:54:44;5.67;;;3.90;;
5898;SDS011;2975;50.956;6.962;2022-11-12T01:57:14;6.90;;;3.90;;
5898;SDS011;2975;50.956;6.962;2022-11-12T01:59:43;9.27;;;4.30;;
5898;SDS011;2975;50.956;6.962;2022-11-12T02:02:11;6.17;;;3.90;;
5898;SDS011;2975;50.956;6.962;2022-11-12T02:04:37;8.47;;;4.57;;
5898;SDS011;2975;50.956;6.962;2022-11-12T02:07:06;8.87;;;4.20;;
5898;SDS011;2975;50.956;6.962;2022-11-12T02:09:36;4.53;;;3.63;;
5898;SDS011;2975;50.956;6.962;2022-11-12T02:12:02;7.13;;;4.27;;
5898;SDS011;2975;50.956;6.962;2022-11-12T02:14:28;6.47;;;4.33;;
5898;SDS011;2975;50.956;6.962;2022-11-12T02:16:54;7.63;;;4.20;;
5898;SDS011;2975;50.956;6.962;2022-11-12T02:19:20;7.93;;;4.63;;
5898;SDS011;2975;50.956;6.962;2022-11-12T02:21:45;5.80;;;4.27;;
5898;SDS011;2975;50.956;6.962;2022-11-12T02:26:38;8.23;;;4.50;;
5898;SDS011;2975;50.956;6.962;2022-11-12T02:29:07;6.73;;;4.13;;
5898;SDS011;2975;50.956;6.962;2022-11-12T02:31:33;7.10;;;4.23;;
5898;SDS011;2975;50.956;6.962;2022-11-12T02:33:58;8.27;;;4.20;;
5898;SDS011;2975;50.956;6.962;2022-11-12T02:36:24;8.87;;;3.87;;
5898;SDS011;2975;50.956;6.962;2022-11-12T02:38:50;5.50;;;3.90;;
5898;SDS011;2975;50.956;6.962;2022-11-12T02:41:16;5.90;;;4.03;;
5898;SDS011;2975;50.956;6.962;2022-11-12T02:43:42;5.60;;;4.27;;
5898;SDS011;2975;50.956;6.962;2022-11-12T02:46:08;9.70;;;4.00;;
5898;SDS011;2975;50.956;6.962;2022-11-12T02:48:34;5.10;;;3.70;;
5898;SDS011;2975;50.956;6.962;2022-11-12T02:50:59;7.17;;;3.90;;
5898;SDS011;2975;50.956;6.962;2022-11-12T02:53:25;5.50;;;3.83;;
5898;SDS011;2975;50.956;6.962;2022-11-12T02:55:51;5.60;;;3.77;;
5898;SDS011;2975;50.956;6.962;2022-11-12T02:58:17;4.83;;;3.73;;
5898;SDS011;2975;50.956;6.962;2022-11-12T03:00:42;4.97;;;4.00;;
5898;SDS011;2975;50.956;6.962;2022-11-12T03:03:08;6.17;;;3.80;;
5898;SDS011;2975;50.956;6.962;2022-11-12T03:05:34;4.37;;;3.83;;
5898;SDS011;2975;50.956;6.962;2022-11-12T03:08:01;6.33;;;3.97;;
5898;SDS011;2975;50.956;6.962;2022-11-12T03:10:29;7.20;;;4.17;;
5898;SDS011;2975;50.956;6.962;2022-11-12T03:12:56;5.73;;;3.77;;
5898;SDS011;2975;50.956;6.962;2022-11-12T03:15:23;4.70;;;3.60;;
5898;SDS011;2975;50.956;6.962;2022-11-12T03:17:49;5.27;;;4.13;;
5898;SDS011;2975;50.956;6.962;2022-11-12T03:20:14;5.27;;;4.60;;
5898;SDS011;2975;50.956;6.962;2022-11-12T03:22:41;6.87;;;3.93;;
5898;SDS011;2975;50.956;6.962;2022-11-12T03:25:07;7.47;;;4.70;;
5898;SDS011;2975;50.956;6.962;2022-11-12T03:27:33;5.30;;;4.17;;
5898;SDS011;2975;50.956;6.962;2022-11-12T03:29:59;5.97;;;3.90;;
5898;SDS011;2975;50.956;6.962;2022-11-12T03:32:25;6.77;;;3.97;;
5898;SDS011;2975;50.956;6.962;2022-11-12T03:34:50;6.40;;;4.10;;
5898;SDS011;2975;50.956;6.962;2022-11-12T03:37:16;6.73;;;4.13;;
5898;SDS011;2975;50.956;6.962;2022-11-12T03:39:41;5.90;;;4.10;;
5898;SDS011;2975;50.956;6.962;2022-11-12T03:42:07;8.57;;;3.50;;
5898;SDS011;2975;50.956;6.962;2022-11-12T03:44:33;9.03;;;4.80;;
5898;SDS011;2975;50.956;6.962;2022-11-12T03:46:59;6.93;;;4.17;;
5898;SDS011;2975;50.956;6.962;2022-11-12T03:49:24;6.77;;;3.77;;
5898;SDS011;2975;50.956;6.962;2022-11-12T03:51:50;6.13;;;4.10;;
5898;SDS011;2975;50.956;6.962;2022-11-12T03:54:16;3.97;;;3.57;;
5898;SDS011;2975;50.956;6.962;2022-11-12T03:56:41;7.23;;;4.13;;
5898;SDS011;2975;50.956;6.962;2022-11-12T03:59:07;7.40;;;4.83;;
5898;SDS011;2975;50.956;6.962;2022-11-12T04:01:33;5.97;;;3.73;;
5898;SDS011;2975;50.956;6.962;2022-11-12T04:03:59;5.73;;;4.27;;
5898;SDS011;2975;50.956;6.962;2022-11-12T04:06:24;5.97;;;4.60;;
5898;SDS011;2975;50.956;6.962;2022-11-12T04:09:09;5.77;;;4.40;;
5898;SDS011;2975;50.956;6.962;2022-11-12T04:11:34;9.57;;;4.97;;
5898;SDS011;2975;50.956;6.962;2022-11-12T04:14:00;10.53;;;5.73;;
5898;SDS011;2975;50.956;6.962;2022-11-12T04:16:26;7.67;;;4.93;;
5898;SDS011;2975;50.956;6.962;2022-11-12T04:19:11;6.27;;;4.63;;
5898;SDS011;2975;50.956;6.962;2022-11-12T04:22:05;6.93;;;4.53;;
5898;SDS011;2975;50.956;6.962;2022-11-12T04:24:34;5.60;;;4.43;;
5898;SDS011;2975;50.956;6.962;2022-11-12T04:27:24;7.57;;;4.73;;
5898;SDS011;2975;50.956;6.962;2022-11-12T04:29:51;5.63;;;4.40;;
5898;SDS011;2975;50.956;6.962;2022-11-12T04:32:37;7.43;;;4.73;;
5898;SDS011;2975;50.956;6.962;2022-11-12T04:35:14;6.50;;;4.77;;
5898;SDS011;2975;50.956;6.962;2022-11-12T04:37:39;7.73;;;5.07;;
5898;SDS011;2975;50.956;6.962;2022-11-12T04:43:09;6.47;;;4.43;;
5898;SDS011;2975;50.956;6.962;2022-11-12T04:45:54;6.70;;;4.80;;
5898;SDS011;2975;50.956;6.962;2022-11-12T04:48:20;5.97;;;4.90;;
5898;SDS011;2975;50.956;6.962;2022-11-12T04:50:48;4.90;;;4.27;;
5898;SDS011;2975;50.956;6.962;2022-11-12T04:53:16;6.30;;;4.77;;
5898;SDS011;2975;50.956;6.962;2022-11-12T04:55:42;8.07;;;4.77;;
5898;SDS011;2975;50.956;6.962;2022-11-12T04:58:08;7.67;;;5.30;;
5898;SDS011;2975;50.956;6.962;2022-11-12T05:00:33;7.83;;;4.97;;
5898;SDS011;2975;50.956;6.962;2022-11-12T05:02:59;7.93;;;4.20;;
5898;SDS011;2975;50.956;6.962;2022-11-12T05:05:25;10.50;;;4.77;;
5898;SDS011;2975;50.956;6.962;2022-11-12T05:07:50;11.43;;;5.43;;
5898;SDS011;2975;50.956;6.962;2022-11-12T05:10:16;6.63;;;4.93;;
5898;SDS011;2975;50.956;6.962;2022-11-12T05:12:42;13.20;;;7.00;;
5898;SDS011;2975;50.956;6.962;2022-11-12T05:15:08;7.03;;;4.10;;
5898;SDS011;2975;50.956;6.962;2022-11-12T05:17:35;6.63;;;5.00;;
5898;SDS011;2975;50.956;6.962;2022-11-12T05:20:05;7.43;;;5.07;;
5898;SDS011;2975;50.956;6.962;2022-11-12T05:22:32;7.53;;;4.67;;
5898;SDS011;2975;50.956;6.962;2022-11-12T05:24:57;8.23;;;4.80;;
5898;SDS011;2975;50.956;6.962;2022-11-12T05:27:23;7.00;;;4.70;;
5898;SDS011;2975;50.956;6.962;2022-11-12T05:29:49;9.93;;;5.17;;
5898;SDS011;2975;50.956;6.962;2022-11-12T05:32:15;10.30;;;5.40;;
5898;SDS011;2975;50.956;6.962;2022-11-12T05:34:42;7.63;;;4.80;;
5898;SDS011;2975;50.956;6.962;2022-11-12T05:37:09;7.43;;;5.00;;
5898;SDS011;2975;50.956;6.962;2022-11-12T05:39:36;6.17;;;4.80;;
5898;SDS011;2975;50.956;6.962;2022-11-12T05:42:02;7.40;;;5.10;;
5898;SDS011;2975;50.956;6.962;2022-11-12T05:44:28;11.67;;;5.93;;
5898;SDS011;2975;50.956;6.962;2022-11-12T05:46:54;8.77;;;5.50;;
5898;SDS011;2975;50.956;6.962;2022-11-12T05:49:20;8.97;;;5.07;;
5898;SDS011;2975;50.956;6.962;2022-11-12T05:51:45;7.17;;;4.93;;
5898;SDS011;2975;50.956;6.962;2022-11-12T05:54:11;6.40;;;4.60;;
5898;SDS011;2975;50.956;6.962;2022-11-12T05:56:37;6.93;;;5.20;;
5898;SDS011;2975;50.956;6.962;2022-11-12T05:59:04;8.03;;;4.90;;
5898;SDS011;2975;50.956;6.962;2022-11-12T06:01:31;8.43;;;4.60;;
5898;SDS011;2975;50.956;6.962;2022-11-12T06:03:58;7.30;;;4.53;;
5898;SDS011;2975;50.956;6.962;2022-11-12T06:06:23;7.27;;;5.20;;
5898;SDS011;2975;50.956;6.962;2022-11-12T06:08:49;8.27;;;5.50;;
5898;SDS011;2975;50.956;6.962;2022-11-12T06:11:15;6.00;;;4.70;;
5898;SDS011;2975;50.956;6.962;2022-11-12T06:13:40;10.17;;;5.67;;
5898;SDS011;2975;50.956;6.962;2022-11-12T06:16:06;7.53;;;4.77;;
5898;SDS011;2975;50.956;6.962;2022-11-12T06:18:32;9.93;;;5.37;;
5898;SDS011;2975;50.956;6.962;2022-11-12T06:21:02;7.93;;;5.17;;
5898;SDS011;2975;50.956;6.962;2022-11-12T06:23:47;12.43;;;5.30;;
5898;SDS011;2975;50.956;6.962;2022-11-12T06:26:14;11.70;;;5.43;;
5898;SDS011;2975;50.956;6.962;2022-11-12T06:28:40;8.03;;;5.63;;
5898;SDS011;2975;50.956;6.962;2022-11-12T06:31:05;15.90;;;9.13;;
5898;SDS011;2975;50.956;6.962;2022-11-12T06:33:31;8.60;;;4.73;;
5898;SDS011;2975;50.956;6.962;2022-11-12T06:36:00;7.60;;;5.53;;
5898;SDS011;2975;50.956;6.962;2022-11-12T06:38:28;7.87;;;4.87;;
5898;SDS011;2975;50.956;6.962;2022-11-12T06:40:55;9.17;;;4.83;;
5898;SDS011;2975;50.956;6.962;2022-11-12T06:43:20;8.03;;;5.40;;
5898;SDS011;2975;50.956;6.962;2022-11-12T06:45:46;6.73;;;4.80;;
5898;SDS011;2975;50.956;6.962;2022-11-12T06:48:12;7.00;;;5.30;;
5898;SDS011;2975;50.956;6.962;2022-11-12T06:50:37;7.53;;;4.90;;
5898;SDS011;2975;50.956;6.962;2022-11-12T06:53:03;7.23;;;4.93;;
5898;SDS011;2975;50.956;6.962;2022-11-12T06:55:29;7.27;;;4.77;;
5898;SDS011;2975;50.956;6.962;2022-11-12T06:57:54;10.20;;;6.03;;
5898;SDS011;2975;50.956;6.962;2022-11-12T07:00:20;8.47;;;5.30;;
5898;SDS011;2975;50.956;6.962;2022-11-12T07:02:45;9.83;;;5.20;;
5898;SDS011;2975;50.956;6.962;2022-11-12T07:05:11;9.80;;;5.20;;
5898;SDS011;2975;50.956;6.962;2022-11-12T07:07:37;7.33;;;4.50;;
5898;SDS011;2975;50.956;6.962;2022-11-12T07:10:02;8.07;;;5.20;;
5898;SDS011;2975;50.956;6.962;2022-11-12T07:12:28;7.87;;;5.00;;
5898;SDS011;2975;50.956;6.962;2022-11-12T07:14:54;5.87;;;4.67;;
5898;SDS011;2975;50.956;6.962;2022-11-12T07:17:20;7.73;;;4.87;;
5898;SDS011;2975;50.956;6.962;2022-11-12T07:19:46;9.53;;;5.23;;
5898;SDS011;2975;50.956;6.962;2022-11-12T07:22:11;8.17;;;5.20;;
5898;SDS011;2975;50.956;6.962;2022-11-12T07:24:37;9.57;;;4.73;;
5898;SDS011;2975;50.956;6.962;2022-11-12T07:27:02;6.67;;;4.90;;
5898;SDS011;2975;50.956;6.962;2022-11-12T07:29:29;6.97;;;4.90;;
5898;SDS011;2975;50.956;6.962;2022-11-12T07:31:55;5.50;;;4.70;;
5898;SDS011;2975;50.956;6.962;2022-11-12T07:34:20;5.67;;;4.20;;
5898;SDS011;2975;50.956;6.962;2022-11-12T07:36:46;10.17;;;5.30;;
5898;SDS011;2975;50.956;6.962;2022-11-12T07:39:15;10.03;;;5.40;;
5898;SDS011;2975;50.956;6.962;2022-11-12T07:41:41;7.47;;;4.73;;
5898;SDS011;2975;50.956;6.962;2022-11-12T07:44:06;8.23;;;4.47;;
5898;SDS011;2975;50.956;6.962;2022-11-12T07:46:32;8.97;;;4.73;;
5898;SDS011;2975;50.956;6.962;2022-11-12T07:48:58;7.30;;;4.37;;
5898;SDS011;2975;50.956;6.962;2022-11-12T07:51:24;7.13;;;4.70;;
5898;SDS011;2975;50.956;6.962;2022-11-12T07:53:52;5.97;;;4.73;;
5898;SDS011;2975;50.956;6.962;2022-11-12T07:56:20;7.87;;;4.67;;
5898;SDS011;2975;50.956;6.962;2022-11-12T07:58:46;9.67;;;4.80;;
5898;SDS011;2975;50.956;6.962;2022-11-12T08:01:36;6.60;;;5.10;;
5898;SDS011;2975;50.956;6.962;2022-11-12T08:04:05;9.17;;;4.90;;
5898;SDS011;2975;50.956;6.962;2022-11-12T08:06:33;7.90;;;4.87;;
5898;SDS011;2975;50.956;6.962;2022-11-12T08:09:00;6.63;;;4.63;;
5898;SDS011;2975;50.956;6.962;2022-11-12T08:11:28;9.57;;;4.70;;
5898;SDS011;2975;50.956;6.962;2022-11-12T08:13:54;5.63;;;4.03;;
5898;SDS011;2975;50.956;6.962;2022-11-12T08:16:20;6.37;;;4.60;;
5898;SDS011;2975;50.956;6.962;2022-11-12T08:18:46;6.57;;;4.70;;
5898;SDS011;2975;50.956;6.962;2022-11-12T08:21:13;8.70;;;4.70;;
5898;SDS011;2975;50.956;6.962;2022-11-12T08:23:40;6.23;;;4.50;;
5898;SDS011;2975;50.956;6.962;2022-11-12T08:26:07;7.90;;;4.60;;
5898;SDS011;2975;50.956;6.962;2022-11-12T08:28:35;8.67;;;4.90;;
5898;SDS011;2975;50.956;6.962;2022-11-12T08:31:02;5.83;;;4.90;;
5898;SDS011;2975;50.956;6.962;2022-11-12T08:33:31;4.90;;;4.37;;
5898;SDS011;2975;50.956;6.962;2022-11-12T08:35:58;4.53;;;4.00;;
5898;SDS011;2975;50.956;6.962;2022-11-12T08:38:27;4.60;;;3.53;;
5898;SDS011;2975;50.956;6.962;2022-11-12T08:40:53;6.47;;;4.60;;
5898;SDS011;2975;50.956;6.962;2022-11-12T08:43:19;8.37;;;4.63;;
5898;SDS011;2975;50.956;6.962;2022-11-12T08:45:44;6.73;;;4.63;;
5898;SDS011;2975;50.956;6.962;2022-11-12T08:48:12;7.23;;;4.23;;
5898;SDS011;2975;50.956;6.962;2022-11-12T08:50:39;6.20;;;4.13;;
5898;SDS011;2975;50.956;6.962;2022-11-12T08:53:06;6.03;;;4.13;;
5898;SDS011;2975;50.956;6.962;2022-11-12T08:55:33;7.13;;;4.20;;
5898;SDS011;2975;50.956;6.962;2022-11-12T08:57:59;6.10;;;4.47;;
5898;SDS011;2975;50.956;6.962;2022-11-12T09:00:29;6.27;;;4.47;;
5898;SDS011;2975;50.956;6.962;2022-11-12T09:03:00;5.40;;;3.83;;
5898;SDS011;2975;50.956;6.962;2022-11-12T09:05:27;7.10;;;5.00;;
5898;SDS011;2975;50.956;6.962;2022-11-12T09:07:56;4.67;;;4.17;;
5898;SDS011;2975;50.956;6.962;2022-11-12T09:10:23;5.00;;;3.70;;
5898;SDS011;2975;50.956;6.962;2022-11-12T09:12:50;7.00;;;4.13;;
5898;SDS011;2975;50.956;6.962;2022-11-12T09:15:16;6.97;;;4.00;;
5898;SDS011;2975;50.956;6.962;2022-11-12T09:17:42;5.37;;;3.63;;
5898;SDS011;2975;50.956;6.962;2022-11-12T09:20:07;6.77;;;3.80;;
5898;SDS011;2975;50.956;6.962;2022-11-12T09:22:33;4.17;;;3.60;;
5898;SDS011;2975;50.956;6.962;2022-11-12T09:24:59;5.00;;;3.77;;
5898;SDS011;2975;50.956;6.962;2022-11-12T09:27:27;6.03;;;3.70;;
5898;SDS011;2975;50.956;6.962;2022-11-12T09:29:53;6.87;;;3.77;;
5898;SDS011;2975;50.956;6.962;2022-11-12T09:32:19;4.17;;;3.63;;
5898;SDS011;2975;50.956;6.962;2022-11-12T09:34:45;4.83;;;3.80;;
5898;SDS011;2975;50.956;6.962;2022-11-12T09:37:10;8.00;;;3.90;;
5898;SDS011;2975;50.956;6.962;2022-11-12T09:39:36;6.23;;;4.17;;
5898;SDS011;2975;50.956;6.962;2022-11-12T09:42:11;4.03;;;3.47;;
5898;SDS011;2975;50.956;6.962;2022-11-12T09:44:39;6.60;;;3.50;;
5898;SDS011;2975;50.956;6.962;2022-11-12T09:50:14;8.63;;;3.57;;
5898;SDS011;2975;50.956;6.962;2022-11-12T09:52:30;8.07;;;3.60;;
5898;SDS011;2975;50.956;6.962;2022-11-12T09:55:06;5.40;;;4.20;;
5898;SDS011;2975;50.956;6.962;2022-11-12T09:57:37;5.03;;;3.33;;
5898;SDS011;2975;50.956;6.962;2022-11-12T10:00:12;6.73;;;3.57;;
5898;SDS011;2975;50.956;6.962;2022-11-12T10:02:51;8.87;;;3.87;;
5898;SDS011;2975;50.956;6.962;2022-11-12T10:05:25;4.53;;;3.43;;
5898;SDS011;2975;50.956;6.962;2022-11-12T10:10:58;4.97;;;3.57;;
5898;SDS011;2975;50.956;6.962;2022-11-12T10:19:31;6.53;;;3.40;;
5898;SDS011;2975;50.956;6.962;2022-11-12T10:25:14;5.90;;;3.40;;
5898;SDS011;2975;50.956;6.962;2022-11-12T10:27:42;5.30;;;3.13;;
5898;SDS011;2975;50.956;6.962;2022-11-12T10:30:17;6.70;;;3.97;;
5898;SDS011;2975;50.956;6.962;2022-11-12T10:32:45;4.13;;;3.30;;
5898;SDS011;2975;50.956;6.962;2022-11-12T10:35:20;5.80;;;3.37;;
5898;SDS011;2975;50.956;6.962;2022-11-12T10:37:50;6.70;;;3.60;;
5898;SDS011;2975;50.956;6.962;2022-11-12T10:45:29;4.83;;;3.47;;
5898;SDS011;2975;50.956;6.962;2022-11-12T10:47:55;4.93;;;3.30;;
5898;SDS011;2975;50.956;6.962;2022-11-12T10:53:01;5.60;;;3.80;;
5898;SDS011;2975;50.956;6.962;2022-11-12T10:55:30;6.87;;;3.80;;
5898;SDS011;2975;50.956;6.962;2022-11-12T10:58:12;5.83;;;4.07;;
5898;SDS011;2975;50.956;6.962;2022-11-12T11:01:04;5.43;;;3.63;;
5898;SDS011;2975;50.956;6.962;2022-11-12T11:03:54;4.33;;;3.37;;
5898;SDS011;2975;50.956;6.962;2022-11-12T11:06:23;5.33;;;3.53;;
5898;SDS011;2975;50.956;6.962;2022-11-12T11:09:06;5.13;;;3.60;;
5898;SDS011;2975;50.956;6.962;2022-11-12T11:11:32;7.20;;;4.10;;
5898;SDS011;2975;50.956;6.962;2022-11-12T11:14:43;6.57;;;3.70;;
5898;SDS011;2975;50.956;6.962;2022-11-12T11:16:56;5.20;;;3.90;;
5898;SDS011;2975;50.956;6.962;2022-11-12T11:19:42;6.10;;;3.93;;
5898;SDS011;2975;50.956;6.962;2022-11-12T11:22:13;7.03;;;4.60;;
5898;SDS011;2975;50.956;6.962;2022-11-12T11:27:45;3.90;;;3.30;;
5898;SDS011;2975;50.956;6.962;2022-11-12T11:30:25;4.23;;;3.50;;
5898;SDS011;2975;50.956;6.962;2022-11-12T11:33:08;6.93;;;3.73;;
5898;SDS011;2975;50.956;6.962;2022-11-12T11:35:56;4.80;;;3.50;;
5898;SDS011;2975;50.956;6.962;2022-11-12T11:47:37;4.37;;;3.40;;
5898;SDS011;2975;50.956;6.962;2022-11-12T11:57:53;5.77;;;3.73;;
5898;SDS011;2975;50.956;6.962;2022-11-12T12:00:41;5.63;;;3.60;;
5898;SDS011;2975;50.956;6.962;2022-11-12T12:03:20;5.80;;;3.93;;
5898;SDS011;2975;50.956;6.962;2022-11-12T12:11:20;6.73;;;4.10;;
5898;SDS011;2975;50.956;6.962;2022-11-12T12:22:08;4.43;;;3.20;;
5898;SDS011;2975;50.956;6.962;2022-11-12T12:25:00;4.03;;;3.53;;
5898;SDS011;2975;50.956;6.962;2022-11-12T12:27:35;4.93;;;3.57;;
5898;SDS011;2975;50.956;6.962;2022-11-12T12:30:15;3.97;;;3.30;;
5898;SDS011;2975;50.956;6.962;2022-11-12T12:32:54;4.37;;;3.23;;
5898;SDS011;2975;50.956;6.962;2022-11-12T12:35:35;3.70;;;3.40;;
5898;SDS011;2975;50.956;6.962;2022-11-12T12:38:17;5.00;;;3.93;;
5898;SDS011;2975;50.956;6.962;2022-11-12T12:41:11;5.37;;;3.77;;
5898;SDS011;2975;50.956;6.962;2022-11-12T12:43:57;5.33;;;3.37;;
5898;SDS011;2975;50.956;6.962;2022-11-12T12:46:32;5.90;;;3.70;;
5898;SDS011;2975;50.956;6.962;2022-11-12T12:49:03;5.50;;;3.10;;
5898;SDS011;2975;50.956;6.962;2022-11-12T12:51:30;5.40;;;3.63;;
5898;SDS011;2975;50.956;6.962;2022-11-12T12:53:58;6.50;;;3.70;;
5898;SDS011;2975;50.956;6.962;2022-11-12T12:58:53;4.90;;;3.57;;
5898;SDS011;2975;50.956;6.962;2022-11-12T13:08:56;4.23;;;3.00;;
5898;SDS011;2975;50.956;6.962;2022-11-12T13:16:58;5.40;;;2.80;;
5898;SDS011;2975;50.956;6.962;2022-11-12T13:19:26;6.60;;;3.47;;
5898;SDS011;2975;50.956;6.962;2022-11-12T13:35:18;4.20;;;3.10;;
5898;SDS011;2975;50.956;6.962;2022-11-12T13:37:54;5.17;;;2.90;;
5898;SDS011;2975;50.956;6.962;2022-11-12T13:45:40;4.17;;;2.73;;
5898;SDS011;2975;50.956;6.962;2022-11-12T13:50:53;4.80;;;2.73;;
5898;SDS011;2975;50.956;6.962;2022-11-12T13:53:22;3.20;;;2.50;;
5898;SDS011;2975;50.956;6.962;2022-11-12T13:55:51;4.03;;;2.70;;
5898;SDS011;2975;50.956;6.962;2022-11-12T13:58:39;4.23;;;2.30;;
5898;SDS011;2975;50.956;6.962;2022-11-12T14:01:04;4.67;;;2.60;;
5898;SDS011;2975;50.956;6.962;2022-11-12T14:03:33;3.57;;;2.70;;
5898;SDS011;2975;50.956;6.962;2022-11-12T14:21:14;4.83;;;2.40;;
5898;SDS011;2975;50.956;6.962;2022-11-12T14:23:44;3.80;;;2.23;;
5898;SDS011;2975;50.956;6.962;2022-11-12T14:26:12;3.10;;;2.60;;
5898;SDS011;2975;50.956;6.962;2022-11-12T14:28:38;4.87;;;2.80;;
5898;SDS011;2975;50.956;6.962;2022-11-12T14:31:11;4.17;;;2.63;;
5898;SDS011;2975;50.956;6.962;2022-11-12T14:33:38;2.87;;;2.57;;
5898;SDS011;2975;50.956;6.962;2022-11-12T14:36:04;2.90;;;2.30;;
5898;SDS011;2975;50.956;6.962;2022-11-12T14:38:36;4.33;;;2.33;;
5898;SDS011;2975;50.956;6.962;2022-11-12T14:41:09;2.40;;;2.20;;
5898;SDS011;2975;50.956;6.962;2022-11-12T14:43:45;3.47;;;2.10;;
5898;SDS011;2975;50.956;6.962;2022-11-12T14:46:36;3.17;;;2.13;;
5898;SDS011;2975;50.956;6.962;2022-11-12T14:49:31;2.80;;;2.23;;
5898;SDS011;2975;50.956;6.962;2022-11-12T14:54:53;3.03;;;2.20;;
5898;SDS011;2975;50.956;6.962;2022-11-12T14:57:26;3.20;;;2.30;;
5898;SDS011;2975;50.956;6.962;2022-11-12T14:59:54;4.17;;;2.83;;
5898;SDS011;2975;50.956;6.962;2022-11-12T15:02:22;2.40;;;2.20;;
5898;SDS011;2975;50.956;6.962;2022-11-12T15:05:13;6.00;;;2.73;;
5898;SDS011;2975;50.956;6.962;2022-11-12T15:13:07;4.97;;;1.87;;
5898;SDS011;2975;50.956;6.962;2022-11-12T15:15:55;2.53;;;1.90;;
5898;SDS011;2975;50.956;6.962;2022-11-12T15:18:25;3.00;;;2.23;;
5898;SDS011;2975;50.956;6.962;2022-11-12T15:23:44;2.83;;;2.47;;
5898;SDS011;2975;50.956;6.962;2022-11-12T15:26:33;4.10;;;2.60;;
5898;SDS011;2975;50.956;6.962;2022-11-12T15:31:42;3.27;;;2.10;;
5898;SDS011;2975;50.956;6.962;2022-11-12T15:34:23;2.93;;;2.20;;
5898;SDS011;2975;50.956;6.962;2022-11-12T15:36:49;2.53;;;2.17;;
5898;SDS011;2975;50.956;6.962;2022-11-12T15:39:15;3.37;;;2.50;;
5898;SDS011;2975;50.956;6.962;2022-11-12T15:41:41;2.87;;;1.97;;
5898;SDS011;2975;50.956;6.962;2022-11-12T15:44:09;3.00;;;2.23;;
5898;SDS011;2975;50.956;6.962;2022-11-12T15:46:36;2.10;;;1.90;;
5898;SDS011;2975;50.956;6.962;2022-11-12T15:49:02;2.90;;;2.50;;
5898;SDS011;2975;50.956;6.962;2022-11-12T15:51:37;3.40;;;2.53;;
5898;SDS011;2975;50.956;6.962;2022-11-12T15:54:03;3.40;;;2.03;;
5898;SDS011;2975;50.956;6.962;2022-11-12T15:56:29;5.27;;;2.90;;
5898;SDS011;2975;50.956;6.962;2022-11-12T15:58:55;3.43;;;2.87;;
5898;SDS011;2975;50.956;6.962;2022-11-12T16:01:21;4.00;;;2.57;;
5898;SDS011;2975;50.956;6.962;2022-11-12T16:03:47;3.63;;;2.37;;
5898;SDS011;2975;50.956;6.962;2022-11-12T16:06:12;3.27;;;2.47;;
5898;SDS011;2975;50.956;6.962;2022-11-12T16:08:38;2.77;;;2.10;;
5898;SDS011;2975;50.956;6.962;2022-11-12T16:11:03;3.67;;;2.40;;
5898;SDS011;2975;50.956;6.962;2022-11-12T16:13:49;2.67;;;2.40;;
5898;SDS011;2975;50.956;6.962;2022-11-12T16:16:15;3.23;;;2.57;;
5898;SDS011;2975;50.956;6.962;2022-11-12T16:18:40;4.67;;;3.00;;
5898;SDS011;2975;50.956;6.962;2022-11-12T16:21:07;7.13;;;4.73;;
5898;SDS011;2975;50.956;6.962;2022-11-12T16:23:33;5.40;;;2.80;;
5898;SDS011;2975;50.956;6.962;2022-11-12T16:25:59;2.57;;;2.37;;
5898;SDS011;2975;50.956;6.962;2022-11-12T16:28:26;3.07;;;2.30;;
5898;SDS011;2975;50.956;6.962;2022-11-12T16:30:52;4.00;;;2.67;;
5898;SDS011;2975;50.956;6.962;2022-11-12T16:33:17;4.30;;;2.83;;
5898;SDS011;2975;50.956;6.962;2022-11-12T16:35:43;3.93;;;2.63;;
5898;SDS011;2975;50.956;6.962;2022-11-12T16:38:11;3.87;;;2.63;;
5898;SDS011;2975;50.956;6.962;2022-11-12T16:40:38;3.77;;;2.43;;
5898;SDS011;2975;50.956;6.962;2022-11-12T16:43:04;7.60;;;2.83;;
5898;SDS011;2975;50.956;6.962;2022-11-12T16:45:48;3.97;;;2.73;;
5898;SDS011;2975;50.956;6.962;2022-11-12T16:48:18;5.40;;;2.70;;
5898;SDS011;2975;50.956;6.962;2022-11-12T16:50:45;3.17;;;2.53;;
5898;SDS011;2975;50.956;6.962;2022-11-12T16:53:12;3.50;;;2.67;;
5898;SDS011;2975;50.956;6.962;2022-11-12T16:55:37;6.47;;;3.07;;
5898;SDS011;2975;50.956;6.962;2022-11-12T16:58:03;2.70;;;2.23;;
5898;SDS011;2975;50.956;6.962;2022-11-12T17:00:29;3.87;;;2.37;;
5898;SDS011;2975;50.956;6.962;2022-11-12T17:02:54;3.37;;;2.30;;
5898;SDS011;2975;50.956;6.962;2022-11-12T17:05:21;5.07;;;2.40;;
5898;SDS011;2975;50.956;6.962;2022-11-12T17:07:49;3.60;;;2.47;;
5898;SDS011;2975;50.956;6.962;2022-11-12T17:10:19;4.03;;;2.80;;
5898;SDS011;2975;50.956;6.962;2022-11-12T17:12:48;3.47;;;2.57;;
5898;SDS011;2975;50.956;6.962;2022-11-12T17:15:15;2.80;;;2.33;;
5898;SDS011;2975;50.956;6.962;2022-11-12T17:17:40;2.87;;;2.40;;
5898;SDS011;2975;50.956;6.962;2022-11-12T17:20:06;3.80;;;2.60;;
5898;SDS011;2975;50.956;6.962;2022-11-12T17:22:32;3.13;;;2.30;;
5898;SDS011;2975;50.956;6.962;2022-11-12T17:24:58;4.23;;;2.47;;
5898;SDS011;2975;50.956;6.962;2022-11-12T17:27:24;4.90;;;2.40;;
5898;SDS011;2975;50.956;6.962;2022-11-12T17:29:50;5.00;;;2.70;;
5898;SDS011;2975;50.956;6.962;2022-11-12T17:32:15;2.97;;;2.50;;
5898;SDS011;2975;50.956;6.962;2022-11-12T17:34:41;4.10;;;2.80;;
5898;SDS011;2975;50.956;6.962;2022-11-12T17:37:07;4.27;;;3.03;;